createdAt,value
2018-12-03T00:01:30.650Z,0.80
2018-12-03T00:04:05.481Z,0.80
2018-12-03T00:06:34.632Z,0.80
2018-12-03T00:09:03.605Z,0.80
2018-12-03T00:11:32.241Z,0.80
2018-12-03T00:14:00.972Z,0.90
2018-12-03T00:16:30.594Z,0.90
2018-12-03T00:19:00.326Z,0.90
2018-12-03T00:21:28.974Z,0.90
2018-12-03T00:23:57.638Z,0.90
2018-12-03T00:26:26.392Z,0.90
2018-12-03T00:28:55.226Z,0.90
2018-12-03T00:31:24.147Z,1.00
2018-12-03T00:33:52.930Z,1.00
2018-12-03T00:36:21.637Z,1.00
2018-12-03T00:38:50.273Z,1.00
2018-12-03T00:41:19.031Z,1.00
2018-12-03T00:43:47.746Z,1.00
2018-12-03T00:46:16.673Z,1.00
2018-12-03T00:48:45.266Z,1.00
2018-12-03T00:51:13.845Z,1.00
2018-12-03T00:53:42.601Z,1.00
2018-12-03T00:56:11.269Z,1.10
2018-12-03T00:58:39.978Z,1.10
2018-12-03T01:01:08.611Z,1.00
2018-12-03T01:03:37.422Z,1.00
2018-12-03T01:06:07.042Z,1.10
2018-12-03T01:08:35.691Z,1.10
2018-12-03T01:11:04.421Z,1.10
2018-12-03T01:13:33.055Z,1.10
2018-12-03T01:16:01.649Z,1.10
2018-12-03T01:18:30.323Z,1.10
2018-12-03T01:20:59.001Z,1.20
2018-12-03T01:23:27.587Z,1.20
2018-12-03T01:25:56.282Z,1.20
2018-12-03T01:28:24.988Z,1.20
2018-12-03T01:30:53.701Z,1.20
2018-12-03T01:33:22.342Z,1.20
2018-12-03T01:35:51.018Z,1.20
2018-12-03T01:38:19.847Z,1.20
2018-12-03T01:40:48.634Z,1.20
2018-12-03T01:43:17.282Z,1.20
2018-12-03T01:45:45.962Z,1.20
2018-12-03T01:48:14.641Z,1.20
2018-12-03T01:50:43.313Z,1.20
2018-12-03T01:53:12.037Z,1.20
2018-12-03T01:57:10.418Z,1.20
2018-12-03T01:59:39.173Z,1.20
2018-12-03T02:02:07.817Z,1.20
2018-12-03T02:04:36.440Z,1.20
2018-12-03T02:07:05.585Z,1.30
2018-12-03T02:09:34.254Z,1.30
2018-12-03T02:12:02.964Z,1.20
2018-12-03T02:14:31.741Z,1.30
2018-12-03T02:17:00.394Z,1.30
2018-12-03T02:19:29.065Z,1.30
2018-12-03T02:21:57.713Z,1.30
2018-12-03T02:24:26.334Z,1.30
2018-12-03T02:26:54.938Z,1.30
2018-12-03T02:29:23.641Z,1.30
2018-12-03T02:31:52.529Z,1.40
2018-12-03T02:34:21.197Z,1.40
2018-12-03T02:36:49.915Z,1.40
2018-12-03T02:39:18.537Z,1.40
2018-12-03T02:41:47.165Z,1.40
2018-12-03T02:44:15.814Z,1.50
2018-12-03T02:46:44.407Z,1.40
2018-12-03T02:49:13.105Z,1.50
2018-12-03T02:51:41.764Z,1.50
2018-12-03T02:54:10.353Z,1.50
2018-12-03T02:56:39.075Z,1.50
2018-12-03T02:59:07.859Z,1.50
2018-12-03T03:01:36.555Z,1.50
2018-12-03T03:04:05.613Z,1.60
2018-12-03T03:06:34.269Z,1.60
2018-12-03T03:09:03.723Z,1.60
2018-12-03T03:11:31.785Z,1.60
2018-12-03T03:14:00.421Z,1.60
2018-12-03T03:16:29.187Z,1.60
2018-12-03T03:18:57.830Z,1.60
2018-12-03T03:21:26.515Z,1.60
2018-12-03T03:23:55.205Z,1.60
2018-12-03T03:26:23.875Z,1.60
2018-12-03T03:28:52.605Z,1.60
2018-12-03T03:31:21.263Z,1.70
2018-12-03T03:33:49.915Z,1.70
2018-12-03T03:36:18.543Z,1.70
2018-12-03T03:38:47.244Z,1.70
2018-12-03T03:41:15.870Z,1.70
2018-12-03T03:43:44.502Z,1.70
2018-12-03T03:46:13.171Z,1.80
2018-12-03T03:48:41.856Z,1.80
2018-12-03T03:51:10.541Z,1.80
2018-12-03T03:53:39.222Z,1.80
2018-12-03T03:56:07.927Z,1.90
2018-12-03T03:58:36.590Z,1.90
2018-12-03T04:01:05.743Z,1.90
2018-12-03T04:03:34.474Z,1.90
2018-12-03T04:06:03.547Z,2.00
2018-12-03T04:08:32.298Z,2.00
2018-12-03T04:11:00.936Z,2.00
2018-12-03T04:13:29.628Z,2.00
2018-12-03T04:15:58.327Z,2.00
2018-12-03T04:18:26.977Z,2.10
2018-12-03T04:20:55.648Z,2.10
2018-12-03T04:23:24.273Z,2.10
2018-12-03T04:25:52.941Z,2.20
2018-12-03T04:28:21.602Z,2.20
2018-12-03T04:30:50.334Z,2.20
2018-12-03T04:33:18.965Z,2.20
2018-12-03T04:35:47.570Z,2.20
2018-12-03T04:38:16.434Z,2.30
2018-12-03T04:40:45.061Z,2.30
2018-12-03T04:43:13.761Z,2.30
2018-12-03T04:45:42.399Z,2.30
2018-12-03T04:48:11.117Z,2.30
2018-12-03T04:50:39.782Z,2.40
2018-12-03T04:53:08.504Z,2.40
2018-12-03T04:55:37.283Z,2.50
2018-12-03T04:58:06.325Z,2.50
2018-12-03T05:00:34.988Z,2.40
2018-12-03T05:03:03.666Z,2.50
2018-12-03T05:05:32.300Z,2.50
2018-12-03T05:08:00.932Z,2.50
2018-12-03T05:10:29.562Z,2.50
2018-12-03T05:12:58.300Z,2.50
2018-12-03T05:15:26.930Z,2.50
2018-12-03T05:17:55.779Z,2.50
2018-12-03T05:20:25.335Z,2.60
2018-12-03T05:22:54.018Z,2.50
2018-12-03T05:25:22.713Z,2.50
2018-12-03T05:27:51.420Z,2.60
2018-12-03T05:30:20.097Z,2.60
2018-12-03T05:32:48.825Z,2.60
2018-12-03T05:35:22.299Z,2.60
2018-12-03T05:37:50.955Z,2.60
2018-12-03T05:40:22.558Z,2.60
2018-12-03T05:42:51.213Z,2.60
2018-12-03T05:45:19.850Z,2.70
2018-12-03T05:47:48.556Z,2.70
2018-12-03T05:50:17.375Z,2.70
2018-12-03T05:52:47.108Z,2.70
2018-12-03T05:55:15.996Z,2.80
2018-12-03T05:57:45.326Z,2.80
2018-12-03T06:00:17.015Z,2.80
2018-12-03T06:02:45.707Z,2.80
2018-12-03T06:05:14.969Z,2.80
2018-12-03T06:07:43.590Z,2.80
2018-12-03T06:10:16.325Z,2.80
2018-12-03T06:12:45.035Z,2.80
2018-12-03T06:15:15.876Z,2.90
2018-12-03T06:17:45.018Z,2.90
2018-12-03T06:20:14.846Z,2.90
2018-12-03T06:22:43.531Z,2.90
2018-12-03T06:25:15.521Z,2.90
2018-12-03T06:27:44.194Z,2.90
2018-12-03T06:30:18.330Z,3.00
2018-12-03T06:32:47.004Z,3.00
2018-12-03T06:35:16.464Z,3.00
2018-12-03T06:37:45.129Z,3.00
2018-12-03T06:40:16.726Z,3.10
2018-12-03T06:42:45.382Z,3.10
2018-12-03T06:45:15.382Z,3.10
2018-12-03T06:47:51.085Z,3.10
2018-12-03T06:50:19.787Z,3.10
2018-12-03T06:52:48.447Z,3.10
2018-12-03T06:55:17.058Z,3.20
2018-12-03T06:57:45.871Z,3.20
2018-12-03T07:00:16.197Z,3.20
2018-12-03T07:02:46.104Z,3.20
2018-12-03T07:05:14.816Z,3.20
2018-12-03T07:07:44.625Z,3.20
2018-12-03T07:10:15.747Z,3.30
2018-12-03T07:12:45.152Z,3.30
2018-12-03T07:15:16.538Z,3.30
2018-12-03T07:17:45.261Z,3.30
2018-12-03T07:20:14.226Z,3.30
2018-12-03T07:22:42.887Z,3.40
2018-12-03T07:25:12.339Z,3.40
2018-12-03T07:27:41.198Z,3.40
2018-12-03T07:30:21.643Z,3.40
2018-12-03T07:32:50.957Z,3.40
2018-12-03T07:35:20.338Z,3.40
2018-12-03T07:37:49.975Z,3.40
2018-12-03T07:40:18.597Z,3.50
2018-12-03T07:42:47.390Z,3.50
2018-12-03T07:45:18.321Z,3.50
2018-12-03T07:47:47.024Z,3.50
2018-12-03T07:50:17.890Z,3.50
2018-12-03T07:52:46.678Z,3.60
2018-12-03T07:55:18.453Z,3.60
2018-12-03T07:58:06.973Z,3.60
2018-12-03T08:00:39.773Z,3.70
2018-12-03T08:03:09.134Z,3.70
2018-12-03T08:05:37.789Z,3.70
2018-12-03T08:08:08.223Z,3.80
2018-12-03T08:10:37.266Z,3.80
2018-12-03T08:13:07.963Z,3.80
2018-12-03T08:15:36.778Z,3.80
2018-12-03T08:18:08.493Z,3.80
2018-12-03T08:20:44.979Z,3.80
2018-12-03T08:23:19.641Z,3.80
2018-12-03T08:25:48.262Z,3.90
2018-12-03T08:28:16.997Z,4.00
2018-12-03T08:30:45.861Z,4.00
2018-12-03T08:33:14.499Z,4.00
2018-12-03T08:35:43.507Z,4.10
2018-12-03T08:38:12.220Z,4.10
2018-12-03T08:40:40.845Z,4.10
2018-12-03T08:43:09.763Z,4.10
2018-12-03T08:45:38.509Z,4.20
2018-12-03T08:48:07.750Z,4.10
2018-12-03T08:50:39.889Z,4.20
2018-12-03T08:53:10.186Z,4.20
2018-12-03T08:55:39.397Z,4.20
2018-12-03T08:58:12.727Z,4.30
2018-12-03T09:00:42.065Z,4.30
2018-12-03T09:03:20.498Z,4.30
2018-12-03T09:05:49.143Z,4.40
2018-12-03T09:08:18.236Z,4.40
2018-12-03T09:10:47.039Z,4.40
2018-12-03T09:13:18.228Z,4.50
2018-12-03T09:16:00.169Z,4.50
2018-12-03T09:18:34.250Z,4.60
2018-12-03T09:21:03.814Z,4.60
2018-12-03T09:23:32.474Z,4.60
2018-12-03T09:26:01.498Z,4.60
2018-12-03T09:28:30.253Z,4.60
2018-12-03T09:30:58.894Z,4.70
2018-12-03T09:33:27.489Z,4.70
2018-12-03T09:35:56.389Z,4.80
2018-12-03T09:38:25.071Z,4.80
2018-12-03T09:41:01.662Z,4.80
2018-12-03T09:43:30.875Z,4.90
2018-12-03T09:45:59.554Z,4.90
2018-12-03T09:48:28.175Z,5.00
2018-12-03T09:50:56.773Z,5.00
2018-12-03T09:53:25.390Z,5.10
2018-12-03T09:55:54.605Z,5.10
2018-12-03T09:58:24.210Z,5.10
2018-12-03T10:00:53.057Z,5.20
2018-12-03T10:03:31.409Z,5.20
2018-12-03T10:06:05.347Z,5.30
2018-12-03T10:08:34.411Z,5.30
2018-12-03T10:11:03.621Z,5.30
2018-12-03T10:13:33.139Z,5.40
2018-12-03T10:16:01.764Z,5.40
2018-12-03T10:18:30.474Z,5.40
2018-12-03T10:21:00.692Z,5.50
2018-12-03T10:23:29.596Z,5.50
2018-12-03T10:26:00.559Z,5.50
2018-12-03T10:28:29.536Z,5.60
2018-12-03T10:30:58.700Z,5.60
2018-12-03T10:33:33.125Z,5.60
2018-12-03T10:36:04.069Z,5.60
2018-12-03T10:38:37.645Z,5.60
2018-12-03T10:41:12.633Z,5.60
2018-12-03T10:43:41.285Z,5.60
2018-12-03T10:46:11.033Z,5.70
2018-12-03T10:48:39.659Z,5.70
2018-12-03T10:51:14.286Z,5.70
2018-12-03T10:53:42.970Z,5.70
2018-12-03T10:56:12.061Z,5.70
2018-12-03T10:58:42.947Z,5.70
2018-12-03T11:01:17.107Z,5.80
2018-12-03T11:03:51.153Z,5.80
2018-12-03T11:06:21.164Z,5.80
2018-12-03T11:08:49.955Z,5.80
2018-12-03T11:11:18.713Z,5.80
2018-12-03T11:13:47.422Z,5.90
2018-12-03T11:16:27.757Z,5.90
2018-12-03T11:18:56.871Z,5.90
2018-12-03T11:21:26.438Z,5.90
2018-12-03T11:23:55.140Z,5.90
2018-12-03T11:26:29.493Z,5.90
2018-12-03T11:28:58.471Z,5.90
2018-12-03T11:31:28.785Z,5.90
2018-12-03T11:33:57.581Z,5.90
2018-12-03T11:36:31.458Z,5.90
2018-12-03T11:39:08.769Z,5.90
2018-12-03T11:41:37.484Z,5.90
2018-12-03T11:44:07.021Z,6.00
2018-12-03T11:46:35.651Z,5.90
2018-12-03T11:49:04.398Z,5.90
2018-12-03T11:51:33.015Z,5.90
2018-12-03T11:54:01.653Z,5.90
2018-12-03T11:56:30.249Z,5.90
2018-12-03T11:58:58.845Z,5.90
2018-12-03T12:01:27.526Z,5.90
2018-12-03T12:03:56.297Z,6.00
2018-12-03T12:06:25.003Z,6.00
2018-12-03T12:08:53.669Z,6.00
2018-12-03T12:11:22.257Z,6.00
2018-12-03T12:13:50.957Z,6.00
2018-12-03T12:16:19.721Z,6.00
2018-12-03T12:18:48.355Z,6.00
2018-12-03T12:21:17.023Z,6.00
2018-12-03T12:23:45.726Z,6.00
2018-12-03T12:26:14.389Z,6.00
2018-12-03T12:28:43.195Z,6.00
2018-12-03T12:31:11.988Z,6.00
2018-12-03T12:33:40.634Z,6.00
2018-12-03T12:36:09.362Z,6.10
2018-12-03T12:38:38.034Z,6.10
2018-12-03T12:41:06.757Z,6.10
2018-12-03T12:43:35.374Z,6.10
2018-12-03T12:46:08.181Z,6.10
2018-12-03T12:48:36.817Z,6.10
2018-12-03T12:51:05.487Z,6.00
2018-12-03T12:53:34.153Z,6.00
2018-12-03T12:56:02.864Z,6.00
2018-12-03T12:58:31.605Z,6.10
2018-12-03T13:01:00.265Z,6.10
2018-12-03T13:03:29.049Z,6.10
2018-12-03T13:05:57.826Z,6.10
2018-12-03T13:08:26.432Z,6.10
2018-12-03T13:10:55.562Z,6.10
2018-12-03T13:13:24.177Z,6.10
2018-12-03T13:15:52.781Z,6.10
2018-12-03T13:18:21.437Z,6.10
2018-12-03T13:20:50.889Z,6.10
2018-12-03T13:23:19.550Z,6.10
2018-12-03T13:25:48.209Z,6.10
2018-12-03T13:28:16.838Z,6.10
2018-12-03T13:30:45.497Z,6.10
2018-12-03T13:33:14.148Z,6.10
2018-12-03T13:35:42.789Z,6.10
2018-12-03T13:38:11.538Z,6.20
2018-12-03T13:40:40.290Z,6.20
2018-12-03T13:43:09.096Z,6.20
2018-12-03T13:45:37.696Z,6.30
2018-12-03T13:48:07.086Z,6.30
2018-12-03T13:50:35.709Z,6.30
2018-12-03T13:53:04.465Z,6.30
2018-12-03T13:55:33.116Z,6.30
2018-12-03T13:58:01.797Z,6.30
2018-12-03T14:00:30.425Z,6.40
2018-12-03T14:03:08.273Z,6.40
2018-12-03T14:06:11.306Z,6.40
2018-12-03T14:08:50.603Z,6.40
2018-12-03T14:11:31.070Z,6.30
2018-12-03T14:14:36.705Z,6.30
2018-12-03T14:17:18.108Z,6.30
2018-12-03T14:19:52.741Z,6.30
2018-12-03T14:22:25.298Z,6.30
2018-12-03T14:24:54.181Z,6.30
2018-12-03T14:27:22.858Z,6.30
2018-12-03T14:29:51.573Z,6.30
2018-12-03T14:32:20.181Z,6.30
2018-12-03T14:34:48.779Z,6.30
2018-12-03T14:37:18.408Z,6.30
2018-12-03T14:39:47.062Z,6.30
2018-12-03T14:42:15.808Z,6.40
2018-12-03T14:44:44.425Z,6.30
2018-12-03T14:47:13.146Z,6.40
2018-12-03T14:49:41.813Z,6.40
2018-12-03T14:52:10.656Z,6.30
2018-12-03T14:54:39.246Z,6.30
2018-12-03T14:57:07.854Z,6.40
2018-12-03T14:59:36.502Z,6.30
2018-12-03T15:02:05.270Z,6.40
2018-12-03T15:04:33.925Z,6.40
2018-12-03T15:07:02.473Z,6.40
2018-12-03T15:09:31.235Z,6.40
2018-12-03T15:11:59.911Z,6.40
2018-12-03T15:14:28.549Z,6.40
2018-12-03T15:16:57.192Z,6.40
2018-12-03T15:19:25.848Z,6.40
2018-12-03T15:21:54.553Z,6.40
2018-12-03T15:24:23.233Z,6.40
2018-12-03T15:26:52.025Z,6.40
2018-12-03T15:29:20.649Z,6.40
2018-12-03T15:31:49.344Z,6.40
2018-12-03T15:34:18.081Z,6.40
2018-12-03T15:36:46.853Z,6.40
2018-12-03T15:39:15.501Z,6.40
2018-12-03T15:41:44.119Z,6.40
2018-12-03T15:44:12.821Z,6.40
2018-12-03T15:46:41.462Z,6.40
2018-12-03T15:49:10.125Z,6.30
2018-12-03T15:51:38.728Z,6.30
2018-12-03T15:54:07.337Z,6.40
2018-12-03T15:56:35.997Z,6.40
2018-12-03T15:59:04.569Z,6.40
2018-12-03T16:01:33.193Z,6.40
2018-12-03T16:04:01.966Z,6.40
2018-12-03T16:06:30.637Z,6.40
2018-12-03T16:08:59.416Z,6.40
2018-12-03T16:11:28.057Z,6.40
2018-12-03T16:13:56.736Z,6.40
2018-12-03T16:16:25.513Z,6.40
2018-12-03T16:18:54.148Z,6.40
2018-12-03T16:21:22.837Z,6.40
2018-12-03T16:23:51.549Z,6.40
2018-12-03T16:26:20.189Z,6.40
2018-12-03T16:28:48.809Z,6.40
2018-12-03T16:31:17.468Z,6.40
2018-12-03T16:33:46.125Z,6.40
2018-12-03T16:36:15.005Z,6.40
2018-12-03T16:38:43.624Z,6.50
2018-12-03T16:41:12.363Z,6.40
2018-12-03T16:43:41.138Z,6.50
2018-12-03T16:46:09.777Z,6.50
2018-12-03T16:48:38.385Z,6.50
2018-12-03T16:51:07.110Z,6.50
2018-12-03T16:53:35.770Z,6.40
2018-12-03T16:56:04.465Z,6.50
2018-12-03T16:58:33.113Z,6.50
2018-12-03T17:01:01.833Z,6.50
2018-12-03T17:03:30.510Z,6.50
2018-12-03T17:05:59.185Z,6.50
2018-12-03T17:08:27.933Z,6.40
2018-12-03T17:10:56.599Z,6.40
2018-12-03T17:13:25.221Z,6.40
2018-12-03T17:15:53.808Z,6.40
2018-12-03T17:18:22.402Z,6.40
2018-12-03T17:21:13.958Z,6.40
2018-12-03T17:23:55.177Z,6.30
2018-12-03T17:26:23.812Z,6.30
2018-12-03T17:28:52.486Z,6.30
2018-12-03T17:31:21.206Z,6.30
2018-12-03T17:33:49.853Z,6.30
2018-12-03T17:36:19.055Z,6.30
2018-12-03T17:38:48.640Z,6.30
2018-12-03T17:41:17.405Z,6.30
2018-12-03T17:43:46.009Z,6.30
2018-12-03T17:46:14.594Z,6.30
2018-12-03T17:48:43.302Z,6.30
2018-12-03T17:51:12.114Z,6.20
2018-12-03T17:53:40.954Z,6.20
2018-12-03T17:56:09.657Z,6.30
2018-12-03T17:58:38.382Z,6.20
2018-12-03T18:01:07.022Z,6.20
2018-12-03T18:03:35.765Z,6.20
2018-12-03T18:06:04.541Z,6.20
2018-12-03T18:08:33.310Z,6.30
2018-12-03T18:11:01.985Z,6.20
2018-12-03T18:13:30.673Z,6.30
2018-12-03T18:15:59.363Z,6.20
2018-12-03T18:18:28.262Z,6.30
2018-12-03T18:20:57.059Z,6.20
2018-12-03T18:23:25.724Z,6.20
2018-12-03T18:25:54.386Z,6.30
2018-12-03T18:28:23.061Z,6.30
2018-12-03T18:30:51.646Z,6.30
2018-12-03T18:33:20.326Z,6.30
2018-12-03T18:35:49.026Z,6.30
2018-12-03T18:39:20.653Z,6.30
2018-12-03T18:41:49.330Z,6.30
2018-12-03T18:44:17.925Z,6.30
2018-12-03T18:46:46.526Z,6.30
2018-12-03T18:49:22.793Z,6.30
2018-12-03T18:51:51.467Z,6.30
2018-12-03T18:54:20.133Z,6.30
2018-12-03T18:56:48.809Z,6.30
2018-12-03T18:59:17.425Z,6.30
2018-12-03T19:01:46.871Z,6.40
2018-12-03T19:04:16.487Z,6.30
2018-12-03T19:06:45.148Z,6.30
2018-12-03T19:09:13.818Z,6.40
2018-12-03T19:11:42.501Z,6.30
2018-12-03T19:14:11.206Z,6.30
2018-12-03T19:16:40.011Z,6.30
2018-12-03T19:19:08.669Z,6.40
2018-12-03T19:21:37.361Z,6.30
2018-12-03T19:24:06.096Z,6.30
2018-12-03T19:26:34.853Z,6.30
2018-12-03T19:29:03.497Z,6.30
2018-12-03T19:31:32.189Z,6.30
2018-12-03T19:34:00.849Z,6.30
2018-12-03T19:36:29.443Z,6.40
2018-12-03T19:38:58.025Z,6.40
2018-12-03T19:41:26.619Z,6.40
2018-12-03T19:43:55.303Z,6.40
2018-12-03T19:46:24.062Z,6.40
2018-12-03T19:48:53.037Z,6.40
2018-12-03T19:51:22.856Z,6.40
2018-12-03T19:53:50.556Z,6.30
2018-12-03T19:56:20.237Z,6.40
2018-12-03T19:58:50.743Z,6.40
2018-12-03T20:01:19.707Z,6.40
2018-12-03T20:03:48.500Z,6.30
2018-12-03T20:06:17.288Z,6.30
2018-12-03T20:08:45.953Z,6.30
2018-12-03T20:11:14.622Z,6.30
2018-12-03T20:13:43.454Z,6.30
2018-12-03T20:16:12.112Z,6.30
2018-12-03T20:18:40.857Z,6.30
2018-12-03T20:21:13.636Z,6.30
2018-12-03T20:23:47.246Z,6.30
2018-12-03T20:26:20.713Z,6.40
2018-12-03T20:28:55.902Z,6.40
2018-12-03T20:31:51.437Z,6.40
2018-12-03T20:34:35.110Z,6.40
2018-12-03T20:37:19.033Z,6.40
2018-12-03T20:39:57.215Z,6.40
2018-12-03T20:42:30.220Z,6.40
2018-12-03T20:45:12.222Z,6.50
2018-12-03T20:47:42.778Z,6.50
2018-12-03T20:50:20.416Z,6.40
2018-12-03T20:52:50.158Z,6.40
2018-12-03T20:55:23.245Z,6.40
2018-12-03T20:57:51.879Z,6.50
2018-12-03T21:00:21.193Z,6.50
2018-12-03T21:02:53.034Z,6.50
2018-12-03T21:05:21.621Z,6.50
2018-12-03T21:07:50.241Z,6.50
2018-12-03T21:10:18.939Z,6.50
2018-12-03T21:12:47.569Z,6.50
2018-12-03T21:15:16.229Z,6.50
2018-12-03T21:17:44.957Z,6.40
2018-12-03T21:20:22.602Z,6.40
2018-12-03T21:22:51.266Z,6.50
2018-12-03T21:25:19.898Z,6.50
2018-12-03T21:27:48.522Z,6.50
2018-12-03T21:30:17.324Z,6.50
2018-12-03T21:32:46.081Z,6.50
2018-12-03T21:35:14.887Z,6.50
2018-12-03T21:37:43.580Z,6.50
2018-12-03T21:40:12.225Z,6.50
2018-12-03T21:42:42.053Z,6.40
2018-12-03T21:45:10.738Z,6.40
2018-12-03T21:47:39.414Z,6.40
2018-12-03T21:50:08.121Z,6.40
2018-12-03T21:52:36.786Z,6.40
2018-12-03T21:55:06.785Z,6.30
2018-12-03T21:57:35.527Z,6.40
2018-12-03T22:00:04.641Z,6.40
2018-12-03T22:02:33.258Z,6.40
2018-12-03T22:05:02.004Z,6.40
2018-12-03T22:07:30.647Z,6.40
2018-12-03T22:09:59.449Z,6.40
2018-12-03T22:12:28.069Z,6.40
2018-12-03T22:14:56.677Z,6.40
2018-12-03T22:17:25.322Z,6.40
2018-12-03T22:19:53.946Z,6.40
2018-12-03T22:22:22.561Z,6.30
2018-12-03T22:24:51.299Z,6.40
2018-12-03T22:27:19.908Z,6.40
2018-12-03T22:29:48.602Z,6.40
2018-12-03T22:32:17.251Z,6.30
2018-12-03T22:34:45.997Z,6.40
2018-12-03T22:37:14.789Z,6.40
2018-12-03T22:39:46.383Z,6.30
2018-12-03T22:42:12.249Z,6.30
2018-12-03T22:44:40.893Z,6.20
2018-12-03T22:47:09.474Z,6.20
2018-12-03T22:49:38.085Z,6.20
2018-12-03T22:52:06.753Z,6.20
2018-12-03T22:54:35.345Z,6.20
2018-12-03T22:57:04.018Z,6.10
2018-12-03T22:59:32.588Z,6.10
2018-12-03T23:02:01.321Z,6.10
2018-12-03T23:04:30.022Z,6.10
2018-12-03T23:06:58.672Z,6.10
2018-12-03T23:09:27.357Z,6.10
2018-12-03T23:11:56.087Z,6.10
2018-12-03T23:14:24.696Z,6.10
2018-12-03T23:16:53.288Z,6.10
2018-12-03T23:19:22.214Z,6.10
2018-12-03T23:21:50.957Z,6.10
2018-12-03T23:24:19.545Z,6.10
2018-12-03T23:26:48.245Z,6.10
2018-12-03T23:29:17.065Z,6.10
2018-12-03T23:31:45.897Z,6.10
2018-12-03T23:34:14.637Z,6.10
2018-12-03T23:36:43.386Z,6.10
2018-12-03T23:39:12.008Z,6.10
2018-12-03T23:41:40.742Z,6.10
2018-12-03T23:44:09.409Z,6.10
2018-12-03T23:46:38.061Z,6.10
2018-12-03T23:49:06.698Z,6.20
2018-12-03T23:51:36.240Z,6.20
2018-12-03T23:54:04.073Z,6.20
2018-12-03T23:56:32.661Z,6.20
2018-12-03T23:59:01.393Z,6.20
